Lilbourn, MO (63862)

5:52 PM CDT on July 28, 2014 (GMT -0500)
SEMO Electric Coop (KMOSIKES3) Elev 338 ft | 36.85 °N, 89.58 °W | Change Station

Current weather conditions updated 2 minutes ago

Clear
Clear
82.9 °F
Feels Like 84 °F
N
5.0
Wind Variable Wind from NNE
Gusts 13.0 mph

Tomorrow is forecast to be Cooler than today.

Today
High -- | Low -- °F
--% Chance of Precip.
Yesterday
High -- | Low -- °F
Precip. -- in
6:01 AM 8:08 PM
Waxing Crescent, 4% visible
Pressure 30.02 in
Visibility 10.0 miles
Clouds Clear
Heat Index 84 °F
Dew Point 64 °F
Humidity 52%
Rainfall 0.00 in
Snow Depth Not available.
UV 3 out of 12
Pollen 7.30 out of 12
Air Quality Not available.
Flu Activity Not available.
METAR KUCY 282235Z AUTO 33007KT 10SM CLR 26/17 A3002 RMK

More Conditions Fewer Conditions

Pressure 30.02 in
Visibility 10.0 miles
Clouds Clear
Heat Index 84 °F
Dew Point 64 °F
Humidity 52%
Rainfall 0.00 in
Snow Depth Not available.
UV 3 out of 12
Pollen 7.30 out of 12
Air Quality Not available.
Flu Activity Not available.
METAR KUCY 282235Z AUTO 33007KT 10SM CLR 26/17 A3002 RMK

More Conditions Fewer Conditions

10-Day Weather Forecast

Almanac

Astronomy

Jul. 28, 2014 Rise Set
Actual Time 6:01 AM CDT 8:08 PM CDT
Civil Twilight 5:32 AM CDT 8:36 PM CDT
Nautical Twilight 4:57 AM CDT 9:11 PM CDT
Astronomical Twilight 4:19 AM CDT 9:49 PM CDT
Moon 7:38 AM CDT 8:54 PM CDT
Length of Visible Light 15h 04m
Length of Day
14h 06m
Tomorrow will be 1m 39s shorter.
Waxing Crescent, 4% of the Moon is Illuminated
Today
Waxing Crescent
Aug 3
First Quarter
Aug 10
Full
Aug 17
Last Quarter
Aug 25
New

Today's Extremes

State Highs State Lows

Community

WunderPhotos

Upload Photos

1,738,513 photos uploaded!

Nearby

Snow Depth

Station Depth Elevation
No new snow has been reported.

Earthquake Activity

City Distance Mag. Time & Date
No recent earthquake activity has been reported nearby.
Minimum magnitude displayed is 2.5.

Coastal Water Temperatures

Place Temperature
No Stations Reporting

Nearby Weather Stations

Station Location Temp. Heat Index Dew Point Humidity Wind Precip. Elev Updated Type
SEMO Electric Coop, Sikeston, MO 82.9 °F 84 °F 64 °F 52% NNE  at  5.0 mph 0.00 in / hr 338 ft 5:50 PM CDT Normal
Sikeston Ridge, Sikeston, MO 82.3 °F 85 °F 67 °F 60% WNW  at  0.0 mph 0.00 in / hr 326 ft 5:46 PM CDT Normal
MesoWest DEXTER , Dexter, MO 81 °F 83 °F 63 °F 56% North  at  3 mph 0.00 in / hr 305 ft 4:00 PM CDT MADIS
MesoWest BERNIE , Dexter, MO 90 °F 87 °F - - North  at  - 0.00 in / hr 311 ft 3:40 PM CDT MADIS
MesoWest MALDEN , Campbell, MO 86 °F 83 °F - - North  at  - 0.00 in / hr 288 ft 4:05 PM CDT MADIS
MesoWest AVERT , Bloomfield, MO 80 °F 78 °F - - North  at  - 0.00 in / hr 309 ft 3:20 PM CDT MADIS
Peach Orchard, Gideon, MO 83.1 °F 86 °F 67 °F 59% NNE  at  6.0 mph 0.00 in / hr 263 ft 5:52 PM CDT Rapid Fire
Dexterweather.com, Dexter, MO 80.1 °F 82 °F 64 °F 57% North  at  7.0 mph 0.00 in / hr 420 ft 5:52 PM CDT Rapid Fire

Show More Stations Show Fewer Stations